sensor_id;sensor_type;location;lat;lon;timestamp;temperature;humidity
20158;DHT22;10239;56.820;24.416;2023-04-15T00:01:45;10.40;99.90
20158;DHT22;10239;56.820;24.416;2023-04-15T00:04:13;10.40;99.90
20158;DHT22;10239;56.820;24.416;2023-04-15T00:06:41;10.40;99.90
20158;DHT22;10239;56.820;24.416;2023-04-15T00:09:08;10.50;99.90
20158;DHT22;10239;56.820;24.416;2023-04-15T00:11:36;10.40;99.90
20158;DHT22;10239;56.820;24.416;2023-04-15T00:14:04;10.40;99.90
20158;DHT22;10239;56.820;24.416;2023-04-15T00:16:32;10.30;99.90
20158;DHT22;10239;56.820;24.416;2023-04-15T00:19:00;10.30;99.90
20158;DHT22;10239;56.820;24.416;2023-04-15T00:21:28;10.20;99.90
20158;DHT22;10239;56.820;24.416;2023-04-15T00:23:56;10.30;99.90
20158;DHT22;10239;56.820;24.416;2023-04-15T00:26:24;10.30;99.90
20158;DHT22;10239;56.820;24.416;2023-04-15T00:28:52;10.30;99.90
20158;DHT22;10239;56.820;24.416;2023-04-15T00:31:20;10.10;99.90
20158;DHT22;10239;56.820;24.416;2023-04-15T00:33:48;10.00;99.90
20158;DHT22;10239;56.820;24.416;2023-04-15T00:36:16;10.30;99.90
20158;DHT22;10239;56.820;24.416;2023-04-15T00:38:43;10.30;99.90
20158;DHT22;10239;56.820;24.416;2023-04-15T00:41:11;10.10;99.90
20158;DHT22;10239;56.820;24.416;2023-04-15T00:43:39;10.20;99.90
20158;DHT22;10239;56.820;24.416;2023-04-15T00:46:08;10.30;99.90
20158;DHT22;10239;56.820;24.416;2023-04-15T00:48:37;10.30;99.90
20158;DHT22;10239;56.820;24.416;2023-04-15T00:51:05;10.30;99.90
20158;DHT22;10239;56.820;24.416;2023-04-15T00:53:33;10.30;99.90
20158;DHT22;10239;56.820;24.416;2023-04-15T00:56:01;10.30;99.90
20158;DHT22;10239;56.820;24.416;2023-04-15T00:58:29;10.20;99.90
20158;DHT22;10239;56.820;24.416;2023-04-15T01:00:57;10.20;99.90
20158;DHT22;10239;56.820;24.416;2023-04-15T01:03:26;10.20;99.90
20158;DHT22;10239;56.820;24.416;2023-04-15T01:05:56;10.30;99.90
20158;DHT22;10239;56.820;24.416;2023-04-15T01:08:28;10.40;99.90
20158;DHT22;10239;56.820;24.416;2023-04-15T01:11:00;10.50;99.90
20158;DHT22;10239;56.820;24.416;2023-04-15T01:13:30;10.30;99.90
20158;DHT22;10239;56.820;24.416;2023-04-15T01:15:58;10.40;99.90
20158;DHT22;10239;56.820;24.416;2023-04-15T01:18:28;10.50;99.90
20158;DHT22;10239;56.820;24.416;2023-04-15T01:20:55;10.50;99.90
20158;DHT22;10239;56.820;24.416;2023-04-15T01:23:23;10.50;99.90
20158;DHT22;10239;56.820;24.416;2023-04-15T01:25:52;10.20;99.90
20158;DHT22;10239;56.820;24.416;2023-04-15T01:28:20;10.20;99.90
20158;DHT22;10239;56.820;24.416;2023-04-15T01:30:47;10.30;99.90
20158;DHT22;10239;56.820;24.416;2023-04-15T01:33:15;10.20;99.90
20158;DHT22;10239;56.820;24.416;2023-04-15T01:35:45;10.00;99.90
20158;DHT22;10239;56.820;24.416;2023-04-15T01:38:14;10.30;99.90
20158;DHT22;10239;56.820;24.416;2023-04-15T01:40:44;10.20;99.90
20158;DHT22;10239;56.820;24.416;2023-04-15T01:43:12;10.40;99.90
20158;DHT22;10239;56.820;24.416;2023-04-15T01:45:41;10.40;99.90
20158;DHT22;10239;56.820;24.416;2023-04-15T01:48:09;10.20;99.90
20158;DHT22;10239;56.820;24.416;2023-04-15T01:50:37;10.30;99.90
20158;DHT22;10239;56.820;24.416;2023-04-15T01:53:05;10.20;99.90
20158;DHT22;10239;56.820;24.416;2023-04-15T01:55:33;10.10;99.90
20158;DHT22;10239;56.820;24.416;2023-04-15T01:58:00;10.20;99.90
20158;DHT22;10239;56.820;24.416;2023-04-15T02:00:28;10.20;99.90
20158;DHT22;10239;56.820;24.416;2023-04-15T02:02:58;10.30;99.90
20158;DHT22;10239;56.820;24.416;2023-04-15T02:05:26;10.30;99.90
20158;DHT22;10239;56.820;24.416;2023-04-15T02:07:54;10.30;99.90
20158;DHT22;10239;56.820;24.416;2023-04-15T02:10:22;10.30;99.90
20158;DHT22;10239;56.820;24.416;2023-04-15T02:12:50;10.30;99.90
20158;DHT22;10239;56.820;24.416;2023-04-15T02:15:18;10.30;99.90
20158;DHT22;10239;56.820;24.416;2023-04-15T02:17:46;10.30;99.90
20158;DHT22;10239;56.820;24.416;2023-04-15T02:20:18;10.30;99.90
20158;DHT22;10239;56.820;24.416;2023-04-15T02:22:47;10.20;99.90
20158;DHT22;10239;56.820;24.416;2023-04-15T02:25:15;10.40;99.90
20158;DHT22;10239;56.820;24.416;2023-04-15T02:27:43;10.30;99.90
20158;DHT22;10239;56.820;24.416;2023-04-15T02:30:11;10.30;99.90
20158;DHT22;10239;56.820;24.416;2023-04-15T02:32:39;10.30;99.90
20158;DHT22;10239;56.820;24.416;2023-04-15T02:35:08;10.20;99.90
20158;DHT22;10239;56.820;24.416;2023-04-15T02:37:36;10.30;99.90
20158;DHT22;10239;56.820;24.416;2023-04-15T02:40:11;10.20;99.90
20158;DHT22;10239;56.820;24.416;2023-04-15T02:42:40;10.20;99.90
20158;DHT22;10239;56.820;24.416;2023-04-15T02:45:11;10.10;99.90
20158;DHT22;10239;56.820;24.416;2023-04-15T02:47:40;10.20;99.90
20158;DHT22;10239;56.820;24.416;2023-04-15T02:50:11;10.10;99.90
20158;DHT22;10239;56.820;24.416;2023-04-15T02:52:41;10.10;99.90
20158;DHT22;10239;56.820;24.416;2023-04-15T02:55:10;10.10;99.90
20158;DHT22;10239;56.820;24.416;2023-04-15T02:57:37;10.00;99.90
20158;DHT22;10239;56.820;24.416;2023-04-15T03:00:08;9.90;99.90
20158;DHT22;10239;56.820;24.416;2023-04-15T03:02:43;10.00;99.90
20158;DHT22;10239;56.820;24.416;2023-04-15T03:05:12;9.80;99.90
20158;DHT22;10239;56.820;24.416;2023-04-15T03:07:45;9.90;99.90
20158;DHT22;10239;56.820;24.416;2023-04-15T03:10:12;9.90;99.90
20158;DHT22;10239;56.820;24.416;2023-04-15T03:12:40;9.90;99.90
20158;DHT22;10239;56.820;24.416;2023-04-15T03:15:12;9.90;99.90
20158;DHT22;10239;56.820;24.416;2023-04-15T03:17:44;9.90;99.90
20158;DHT22;10239;56.820;24.416;2023-04-15T03:20:12;9.90;99.90
20158;DHT22;10239;56.820;24.416;2023-04-15T03:22:39;9.90;99.90
20158;DHT22;10239;56.820;24.416;2023-04-15T03:25:07;9.90;99.90
20158;DHT22;10239;56.820;24.416;2023-04-15T03:27:37;10.00;99.90
20158;DHT22;10239;56.820;24.416;2023-04-15T03:30:05;10.00;99.90
20158;DHT22;10239;56.820;24.416;2023-04-15T03:32:36;10.00;99.90
20158;DHT22;10239;56.820;24.416;2023-04-15T03:35:05;10.10;99.90
20158;DHT22;10239;56.820;24.416;2023-04-15T03:37:33;10.00;99.90
20158;DHT22;10239;56.820;24.416;2023-04-15T03:40:01;10.00;99.90
20158;DHT22;10239;56.820;24.416;2023-04-15T03:42:28;10.10;99.90
20158;DHT22;10239;56.820;24.416;2023-04-15T03:44:56;9.90;99.90
20158;DHT22;10239;56.820;24.416;2023-04-15T03:47:23;10.00;99.90
20158;DHT22;10239;56.820;24.416;2023-04-15T03:49:50;9.90;99.90
20158;DHT22;10239;56.820;24.416;2023-04-15T03:52:18;10.00;99.90
20158;DHT22;10239;56.820;24.416;2023-04-15T03:54:45;10.00;99.90
20158;DHT22;10239;56.820;24.416;2023-04-15T03:57:13;10.10;99.90
20158;DHT22;10239;56.820;24.416;2023-04-15T03:59:41;10.00;99.90
20158;DHT22;10239;56.820;24.416;2023-04-15T04:02:08;9.90;99.90
20158;DHT22;10239;56.820;24.416;2023-04-15T04:04:36;9.80;99.90
20158;DHT22;10239;56.820;24.416;2023-04-15T04:07:03;9.80;99.90
20158;DHT22;10239;56.820;24.416;2023-04-15T04:09:31;9.90;99.90
20158;DHT22;10239;56.820;24.416;2023-04-15T04:11:59;9.90;99.90
20158;DHT22;10239;56.820;24.416;2023-04-15T04:14:27;9.80;99.90
20158;DHT22;10239;56.820;24.416;2023-04-15T04:16:55;9.80;99.90
20158;DHT22;10239;56.820;24.416;2023-04-15T04:19:23;9.70;99.90
20158;DHT22;10239;56.820;24.416;2023-04-15T04:21:51;9.70;99.90
20158;DHT22;10239;56.820;24.416;2023-04-15T04:24:19;9.70;99.90
20158;DHT22;10239;56.820;24.416;2023-04-15T04:26:46;9.80;99.90
20158;DHT22;10239;56.820;24.416;2023-04-15T04:29:14;10.00;99.90
20158;DHT22;10239;56.820;24.416;2023-04-15T04:31:42;10.00;99.90
20158;DHT22;10239;56.820;24.416;2023-04-15T04:34:10;9.80;99.90
20158;DHT22;10239;56.820;24.416;2023-04-15T04:36:37;9.90;99.90
20158;DHT22;10239;56.820;24.416;2023-04-15T04:39:05;9.90;99.90
20158;DHT22;10239;56.820;24.416;2023-04-15T04:41:32;10.00;99.90
20158;DHT22;10239;56.820;24.416;2023-04-15T04:44:00;9.90;99.90
20158;DHT22;10239;56.820;24.416;2023-04-15T04:46:28;9.90;99.90
20158;DHT22;10239;56.820;24.416;2023-04-15T04:48:56;10.00;99.90
20158;DHT22;10239;56.820;24.416;2023-04-15T04:51:23;10.00;99.90
20158;DHT22;10239;56.820;24.416;2023-04-15T04:53:51;9.90;99.90
20158;DHT22;10239;56.820;24.416;2023-04-15T04:56:19;10.10;99.90
20158;DHT22;10239;56.820;24.416;2023-04-15T04:58:46;10.20;99.90
20158;DHT22;10239;56.820;24.416;2023-04-15T05:01:14;10.10;99.90
20158;DHT22;10239;56.820;24.416;2023-04-15T05:03:41;10.20;99.90
20158;DHT22;10239;56.820;24.416;2023-04-15T05:06:09;10.30;99.90
20158;DHT22;10239;56.820;24.416;2023-04-15T05:08:37;10.40;99.90
20158;DHT22;10239;56.820;24.416;2023-04-15T05:11:06;10.40;99.90
20158;DHT22;10239;56.820;24.416;2023-04-15T05:13:33;10.30;99.90
20158;DHT22;10239;56.820;24.416;2023-04-15T05:16:05;10.40;99.90
20158;DHT22;10239;56.820;24.416;2023-04-15T05:18:32;10.50;99.90
20158;DHT22;10239;56.820;24.416;2023-04-15T05:21:01;10.40;99.90
20158;DHT22;10239;56.820;24.416;2023-04-15T05:23:29;10.70;99.90
20158;DHT22;10239;56.820;24.416;2023-04-15T05:25:57;10.90;99.90
20158;DHT22;10239;56.820;24.416;2023-04-15T05:28:24;11.00;99.90
20158;DHT22;10239;56.820;24.416;2023-04-15T05:30:52;10.90;99.90
20158;DHT22;10239;56.820;24.416;2023-04-15T05:33:19;10.90;99.90
20158;DHT22;10239;56.820;24.416;2023-04-15T05:35:47;10.90;99.50
20158;DHT22;10239;56.820;24.416;2023-04-15T05:38:15;10.90;99.90
20158;DHT22;10239;56.820;24.416;2023-04-15T05:40:42;10.90;99.80
20158;DHT22;10239;56.820;24.416;2023-04-15T05:43:10;11.00;99.90
20158;DHT22;10239;56.820;24.416;2023-04-15T05:45:37;11.80;99.90
20158;DHT22;10239;56.820;24.416;2023-04-15T05:48:05;12.80;98.40
20158;DHT22;10239;56.820;24.416;2023-04-15T05:50:33;13.40;98.20
20158;DHT22;10239;56.820;24.416;2023-04-15T05:53:01;14.00;97.60
20158;DHT22;10239;56.820;24.416;2023-04-15T05:55:28;14.50;97.30
20158;DHT22;10239;56.820;24.416;2023-04-15T05:57:56;14.20;96.00
20158;DHT22;10239;56.820;24.416;2023-04-15T06:00:23;14.10;95.90
20158;DHT22;10239;56.820;24.416;2023-04-15T06:02:51;14.80;95.50
20158;DHT22;10239;56.820;24.416;2023-04-15T06:05:19;15.60;95.00
20158;DHT22;10239;56.820;24.416;2023-04-15T06:07:47;16.40;94.30
20158;DHT22;10239;56.820;24.416;2023-04-15T06:10:16;16.40;93.90
20158;DHT22;10239;56.820;24.416;2023-04-15T06:12:43;16.30;93.50
20158;DHT22;10239;56.820;24.416;2023-04-15T06:15:11;16.00;94.30
20158;DHT22;10239;56.820;24.416;2023-04-15T06:17:39;15.60;93.10
20158;DHT22;10239;56.820;24.416;2023-04-15T06:20:07;14.40;94.00
20158;DHT22;10239;56.820;24.416;2023-04-15T06:22:36;13.60;95.00
20158;DHT22;10239;56.820;24.416;2023-04-15T06:25:06;13.00;95.70
20158;DHT22;10239;56.820;24.416;2023-04-15T06:27:35;12.80;96.80
20158;DHT22;10239;56.820;24.416;2023-04-15T06:30:03;12.80;96.90
20158;DHT22;10239;56.820;24.416;2023-04-15T06:32:31;12.90;95.70
20158;DHT22;10239;56.820;24.416;2023-04-15T06:35:00;13.00;96.10
20158;DHT22;10239;56.820;24.416;2023-04-15T06:37:27;14.20;95.00
20158;DHT22;10239;56.820;24.416;2023-04-15T06:39:55;15.90;93.20
20158;DHT22;10239;56.820;24.416;2023-04-15T06:42:23;16.80;92.50
20158;DHT22;10239;56.820;24.416;2023-04-15T06:44:50;16.70;92.00
20158;DHT22;10239;56.820;24.416;2023-04-15T06:47:18;17.30;91.80
20158;DHT22;10239;56.820;24.416;2023-04-15T06:49:46;17.40;90.60
20158;DHT22;10239;56.820;24.416;2023-04-15T06:52:14;16.80;90.80
20158;DHT22;10239;56.820;24.416;2023-04-15T06:54:42;15.90;91.60
20158;DHT22;10239;56.820;24.416;2023-04-15T06:57:10;14.70;92.50
20158;DHT22;10239;56.820;24.416;2023-04-15T06:59:37;14.40;93.00
20158;DHT22;10239;56.820;24.416;2023-04-15T07:02:06;13.90;93.40
20158;DHT22;10239;56.820;24.416;2023-04-15T07:04:37;13.40;94.80
20158;DHT22;10239;56.820;24.416;2023-04-15T07:07:04;13.20;94.50
20158;DHT22;10239;56.820;24.416;2023-04-15T07:09:32;12.80;95.70
20158;DHT22;10239;56.820;24.416;2023-04-15T07:12:00;12.80;95.70
20158;DHT22;10239;56.820;24.416;2023-04-15T07:14:27;12.80;95.70
20158;DHT22;10239;56.820;24.416;2023-04-15T07:16:55;12.70;96.20
20158;DHT22;10239;56.820;24.416;2023-04-15T07:19:23;12.60;95.90
20158;DHT22;10239;56.820;24.416;2023-04-15T07:21:51;12.60;96.20
20158;DHT22;10239;56.820;24.416;2023-04-15T07:24:18;12.60;96.10
20158;DHT22;10239;56.820;24.416;2023-04-15T07:26:47;12.50;96.00
20158;DHT22;10239;56.820;24.416;2023-04-15T07:29:15;12.50;96.30
20158;DHT22;10239;56.820;24.416;2023-04-15T07:31:42;12.60;96.40
20158;DHT22;10239;56.820;24.416;2023-04-15T07:34:10;12.20;96.90
20158;DHT22;10239;56.820;24.416;2023-04-15T07:36:38;12.30;96.90
20158;DHT22;10239;56.820;24.416;2023-04-15T07:39:06;12.20;96.90
20158;DHT22;10239;56.820;24.416;2023-04-15T07:41:34;12.10;97.00
20158;DHT22;10239;56.820;24.416;2023-04-15T07:44:02;12.30;97.10
20158;DHT22;10239;56.820;24.416;2023-04-15T07:46:30;12.20;96.90
20158;DHT22;10239;56.820;24.416;2023-04-15T07:48:59;12.20;97.20
20158;DHT22;10239;56.820;24.416;2023-04-15T07:51:28;12.20;97.20
20158;DHT22;10239;56.820;24.416;2023-04-15T07:53:57;12.10;97.40
20158;DHT22;10239;56.820;24.416;2023-04-15T07:56:25;12.10;97.40
20158;DHT22;10239;56.820;24.416;2023-04-15T07:58:53;12.00;97.30
20158;DHT22;10239;56.820;24.416;2023-04-15T08:01:21;12.30;97.10
20158;DHT22;10239;56.820;24.416;2023-04-15T08:03:49;12.30;97.10
20158;DHT22;10239;56.820;24.416;2023-04-15T08:06:17;12.20;97.80
20158;DHT22;10239;56.820;24.416;2023-04-15T08:08:45;12.40;97.10
20158;DHT22;10239;56.820;24.416;2023-04-15T08:11:14;12.50;97.80
20158;DHT22;10239;56.820;24.416;2023-04-15T08:13:42;12.70;97.90
20158;DHT22;10239;56.820;24.416;2023-04-15T08:16:19;12.70;97.30
20158;DHT22;10239;56.820;24.416;2023-04-15T08:18:49;12.90;97.70
20158;DHT22;10239;56.820;24.416;2023-04-15T08:21:18;13.30;96.90
20158;DHT22;10239;56.820;24.416;2023-04-15T08:23:48;13.50;96.20
20158;DHT22;10239;56.820;24.416;2023-04-15T08:26:18;13.60;96.40
20158;DHT22;10239;56.820;24.416;2023-04-15T08:28:46;13.80;97.10
20158;DHT22;10239;56.820;24.416;2023-04-15T08:31:15;13.90;95.90
20158;DHT22;10239;56.820;24.416;2023-04-15T08:33:43;14.00;96.40
20158;DHT22;10239;56.820;24.416;2023-04-15T08:36:12;14.20;96.10
20158;DHT22;10239;56.820;24.416;2023-04-15T08:38:40;14.00;96.90
20158;DHT22;10239;56.820;24.416;2023-04-15T08:43:53;14.10;96.20
20158;DHT22;10239;56.820;24.416;2023-04-15T08:46:21;14.10;95.60
20158;DHT22;10239;56.820;24.416;2023-04-15T08:48:49;14.20;95.60
20158;DHT22;10239;56.820;24.416;2023-04-15T08:51:17;14.10;96.00
20158;DHT22;10239;56.820;24.416;2023-04-15T08:53:45;14.40;95.70
20158;DHT22;10239;56.820;24.416;2023-04-15T08:56:15;14.50;95.60
20158;DHT22;10239;56.820;24.416;2023-04-15T08:58:43;14.70;95.30
20158;DHT22;10239;56.820;24.416;2023-04-15T09:01:12;15.20;95.70
20158;DHT22;10239;56.820;24.416;2023-04-15T09:03:41;15.40;94.40
20158;DHT22;10239;56.820;24.416;2023-04-15T09:06:08;15.50;95.00
20158;DHT22;10239;56.820;24.416;2023-04-15T09:08:36;16.20;94.30
20158;DHT22;10239;56.820;24.416;2023-04-15T09:11:04;17.50;93.60
20158;DHT22;10239;56.820;24.416;2023-04-15T09:13:32;18.10;93.20
20158;DHT22;10239;56.820;24.416;2023-04-15T09:16:04;19.10;91.80
20158;DHT22;10239;56.820;24.416;2023-04-15T09:18:34;19.80;91.10
20158;DHT22;10239;56.820;24.416;2023-04-15T09:21:10;19.50;89.70
20158;DHT22;10239;56.820;24.416;2023-04-15T09:23:56;18.60;89.00
20158;DHT22;10239;56.820;24.416;2023-04-15T09:26:37;18.00;90.40
20158;DHT22;10239;56.820;24.416;2023-04-15T09:29:08;18.40;90.60
20158;DHT22;10239;56.820;24.416;2023-04-15T09:31:36;18.80;90.40
20158;DHT22;10239;56.820;24.416;2023-04-15T09:34:05;19.40;88.40
20158;DHT22;10239;56.820;24.416;2023-04-15T09:36:53;19.80;88.30
20158;DHT22;10239;56.820;24.416;2023-04-15T09:39:21;20.10;87.90
20158;DHT22;10239;56.820;24.416;2023-04-15T09:42:07;19.90;86.80
20158;DHT22;10239;56.820;24.416;2023-04-15T09:44:35;20.10;86.60
20158;DHT22;10239;56.820;24.416;2023-04-15T09:47:04;20.10;86.50
20158;DHT22;10239;56.820;24.416;2023-04-15T09:49:32;20.20;87.00
20158;DHT22;10239;56.820;24.416;2023-04-15T09:52:01;20.50;85.30
20158;DHT22;10239;56.820;24.416;2023-04-15T09:54:34;20.70;84.00
20158;DHT22;10239;56.820;24.416;2023-04-15T09:57:07;20.30;86.20
20158;DHT22;10239;56.820;24.416;2023-04-15T09:59:36;20.20;85.80
20158;DHT22;10239;56.820;24.416;2023-04-15T10:02:04;20.50;85.30
20158;DHT22;10239;56.820;24.416;2023-04-15T10:04:35;20.60;83.50
20158;DHT22;10239;56.820;24.416;2023-04-15T10:07:08;20.30;84.90
20158;DHT22;10239;56.820;24.416;2023-04-15T10:09:37;20.20;84.50
20158;DHT22;10239;56.820;24.416;2023-04-15T10:12:05;20.60;84.80
20158;DHT22;10239;56.820;24.416;2023-04-15T10:14:34;20.40;82.60
20158;DHT22;10239;56.820;24.416;2023-04-15T10:17:04;20.50;84.20
20158;DHT22;10239;56.820;24.416;2023-04-15T10:19:33;20.40;83.60
20158;DHT22;10239;56.820;24.416;2023-04-15T10:22:03;20.20;87.10
20158;DHT22;10239;56.820;24.416;2023-04-15T10:24:32;20.30;82.90
20158;DHT22;10239;56.820;24.416;2023-04-15T10:27:02;20.50;84.10
20158;DHT22;10239;56.820;24.416;2023-04-15T10:29:31;20.60;82.10
20158;DHT22;10239;56.820;24.416;2023-04-15T10:32:00;20.20;83.50
20158;DHT22;10239;56.820;24.416;2023-04-15T10:34:30;19.50;87.30
20158;DHT22;10239;56.820;24.416;2023-04-15T10:37:01;19.30;84.20
20158;DHT22;10239;56.820;24.416;2023-04-15T10:42:19;19.70;84.60
20158;DHT22;10239;56.820;24.416;2023-04-15T10:44:51;19.90;85.10
20158;DHT22;10239;56.820;24.416;2023-04-15T10:47:23;19.70;84.30
20158;DHT22;10239;56.820;24.416;2023-04-15T10:49:57;19.50;86.00
20158;DHT22;10239;56.820;24.416;2023-04-15T10:52:26;19.80;85.50
20158;DHT22;10239;56.820;24.416;2023-04-15T10:57:38;19.90;85.40
20158;DHT22;10239;56.820;24.416;2023-04-15T11:00:14;19.60;85.30
20158;DHT22;10239;56.820;24.416;2023-04-15T11:02:47;19.50;85.80
20158;DHT22;10239;56.820;24.416;2023-04-15T11:05:19;19.50;85.20
20158;DHT22;10239;56.820;24.416;2023-04-15T11:07:50;19.50;84.20
20158;DHT22;10239;56.820;24.416;2023-04-15T11:12:59;19.30;87.30
20158;DHT22;10239;56.820;24.416;2023-04-15T11:17:58;19.10;84.60
20158;DHT22;10239;56.820;24.416;2023-04-15T11:20:26;18.90;85.40
20158;DHT22;10239;56.820;24.416;2023-04-15T11:22:54;18.80;86.30
20158;DHT22;10239;56.820;24.416;2023-04-15T11:25:42;18.90;87.10
20158;DHT22;10239;56.820;24.416;2023-04-15T11:28:11;18.80;86.40
20158;DHT22;10239;56.820;24.416;2023-04-15T11:30:40;18.60;86.70
20158;DHT22;10239;56.820;24.416;2023-04-15T11:33:10;18.30;87.00
20158;DHT22;10239;56.820;24.416;2023-04-15T11:35:41;18.10;87.30
20158;DHT22;10239;56.820;24.416;2023-04-15T11:38:12;18.30;87.40
20158;DHT22;10239;56.820;24.416;2023-04-15T11:40:41;18.00;87.20
20158;DHT22;10239;56.820;24.416;2023-04-15T11:43:15;18.10;88.10
20158;DHT22;10239;56.820;24.416;2023-04-15T11:45:57;18.20;85.60
20158;DHT22;10239;56.820;24.416;2023-04-15T11:48:33;17.60;90.00
20158;DHT22;10239;56.820;24.416;2023-04-15T11:51:03;18.10;89.20
20158;DHT22;10239;56.820;24.416;2023-04-15T11:53:46;18.50;86.50
20158;DHT22;10239;56.820;24.416;2023-04-15T11:56:22;18.30;86.40
20158;DHT22;10239;56.820;24.416;2023-04-15T11:58:56;18.30;86.80
20158;DHT22;10239;56.820;24.416;2023-04-15T12:01:34;18.00;89.20
20158;DHT22;10239;56.820;24.416;2023-04-15T12:04:10;18.10;90.20
20158;DHT22;10239;56.820;24.416;2023-04-15T12:06:39;17.70;87.90
20158;DHT22;10239;56.820;24.416;2023-04-15T12:09:10;17.80;88.10
20158;DHT22;10239;56.820;24.416;2023-04-15T12:11:48;17.90;85.80
20158;DHT22;10239;56.820;24.416;2023-04-15T12:14:30;17.90;85.90
20158;DHT22;10239;56.820;24.416;2023-04-15T12:17:00;17.70;87.70
20158;DHT22;10239;56.820;24.416;2023-04-15T12:19:36;17.60;87.70
20158;DHT22;10239;56.820;24.416;2023-04-15T12:22:08;18.10;86.00
20158;DHT22;10239;56.820;24.416;2023-04-15T12:24:38;18.10;85.00
20158;DHT22;10239;56.820;24.416;2023-04-15T12:27:14;18.00;85.40
20158;DHT22;10239;56.820;24.416;2023-04-15T12:29:42;18.00;86.30
20158;DHT22;10239;56.820;24.416;2023-04-15T12:32:12;18.10;86.40
20158;DHT22;10239;56.820;24.416;2023-04-15T12:34:48;18.00;88.30
20158;DHT22;10239;56.820;24.416;2023-04-15T12:37:17;18.10;86.30
20158;DHT22;10239;56.820;24.416;2023-04-15T12:39:47;18.10;85.70
20158;DHT22;10239;56.820;24.416;2023-04-15T12:42:16;18.20;87.10
20158;DHT22;10239;56.820;24.416;2023-04-15T12:44:44;18.00;87.20
20158;DHT22;10239;56.820;24.416;2023-04-15T12:47:12;18.10;87.70
20158;DHT22;10239;56.820;24.416;2023-04-15T12:49:40;18.30;89.10
20158;DHT22;10239;56.820;24.416;2023-04-15T12:55:39;18.50;87.10
20158;DHT22;10239;56.820;24.416;2023-04-15T12:58:07;18.20;86.90
20158;DHT22;10239;56.820;24.416;2023-04-15T13:00:35;18.40;85.60
20158;DHT22;10239;56.820;24.416;2023-04-15T13:03:03;18.20;85.10
20158;DHT22;10239;56.820;24.416;2023-04-15T13:05:33;18.00;85.20
20158;DHT22;10239;56.820;24.416;2023-04-15T13:08:00;17.90;86.20
20158;DHT22;10239;56.820;24.416;2023-04-15T13:10:28;17.80;87.30
20158;DHT22;10239;56.820;24.416;2023-04-15T13:12:58;17.60;88.30
20158;DHT22;10239;56.820;24.416;2023-04-15T13:15:31;17.10;87.70
20158;DHT22;10239;56.820;24.416;2023-04-15T13:17:59;17.50;87.70
20158;DHT22;10239;56.820;24.416;2023-04-15T13:20:27;17.40;88.80
20158;DHT22;10239;56.820;24.416;2023-04-15T13:22:55;17.50;89.10
20158;DHT22;10239;56.820;24.416;2023-04-15T13:25:24;17.30;87.80
20158;DHT22;10239;56.820;24.416;2023-04-15T13:27:52;17.10;87.20
20158;DHT22;10239;56.820;24.416;2023-04-15T13:30:20;16.90;87.70
20158;DHT22;10239;56.820;24.416;2023-04-15T13:32:50;16.70;89.70
20158;DHT22;10239;56.820;24.416;2023-04-15T13:35:20;16.70;87.00
20158;DHT22;10239;56.820;24.416;2023-04-15T13:37:47;16.70;87.70
20158;DHT22;10239;56.820;24.416;2023-04-15T13:40:15;16.60;87.40
20158;DHT22;10239;56.820;24.416;2023-04-15T13:42:43;16.70;87.40
20158;DHT22;10239;56.820;24.416;2023-04-15T13:45:11;16.80;86.80
20158;DHT22;10239;56.820;24.416;2023-04-15T13:47:39;16.80;87.90
20158;DHT22;10239;56.820;24.416;2023-04-15T13:50:07;16.90;87.50
20158;DHT22;10239;56.820;24.416;2023-04-15T13:52:35;16.90;86.60
20158;DHT22;10239;56.820;24.416;2023-04-15T13:55:03;16.80;85.50
20158;DHT22;10239;56.820;24.416;2023-04-15T13:57:46;17.00;86.30
20158;DHT22;10239;56.820;24.416;2023-04-15T14:00:14;16.90;89.10
20158;DHT22;10239;56.820;24.416;2023-04-15T14:02:41;17.10;87.90
20158;DHT22;10239;56.820;24.416;2023-04-15T14:05:09;17.10;85.60
20158;DHT22;10239;56.820;24.416;2023-04-15T14:07:37;17.10;87.70
20158;DHT22;10239;56.820;24.416;2023-04-15T14:10:05;16.40;87.20
20158;DHT22;10239;56.820;24.416;2023-04-15T14:12:33;16.20;87.90
20158;DHT22;10239;56.820;24.416;2023-04-15T14:15:01;16.00;88.20
20158;DHT22;10239;56.820;24.416;2023-04-15T14:17:29;16.40;86.70
20158;DHT22;10239;56.820;24.416;2023-04-15T14:19:56;16.60;88.30
20158;DHT22;10239;56.820;24.416;2023-04-15T14:22:24;16.80;83.50
20158;DHT22;10239;56.820;24.416;2023-04-15T14:24:51;16.90;82.00
20158;DHT22;10239;56.820;24.416;2023-04-15T14:27:20;16.80;81.20
20158;DHT22;10239;56.820;24.416;2023-04-15T14:29:48;16.50;82.20
20158;DHT22;10239;56.820;24.416;2023-04-15T14:32:15;16.40;81.10
20158;DHT22;10239;56.820;24.416;2023-04-15T14:34:43;16.50;81.40
20158;DHT22;10239;56.820;24.416;2023-04-15T14:37:10;16.20;79.70
20158;DHT22;10239;56.820;24.416;2023-04-15T14:39:38;16.20;79.80
20158;DHT22;10239;56.820;24.416;2023-04-15T14:42:05;16.20;80.80
20158;DHT22;10239;56.820;24.416;2023-04-15T14:44:33;16.20;81.20
20158;DHT22;10239;56.820;24.416;2023-04-15T14:47:00;16.20;81.20
20158;DHT22;10239;56.820;24.416;2023-04-15T14:49:28;16.20;80.90
20158;DHT22;10239;56.820;24.416;2023-04-15T14:51:56;16.00;80.30
20158;DHT22;10239;56.820;24.416;2023-04-15T14:54:24;16.00;82.60
20158;DHT22;10239;56.820;24.416;2023-04-15T14:56:51;15.80;83.30
20158;DHT22;10239;56.820;24.416;2023-04-15T14:59:19;15.90;81.60
20158;DHT22;10239;56.820;24.416;2023-04-15T15:01:47;15.90;82.20
20158;DHT22;10239;56.820;24.416;2023-04-15T15:04:15;15.80;81.40
20158;DHT22;10239;56.820;24.416;2023-04-15T15:06:43;15.70;83.20
20158;DHT22;10239;56.820;24.416;2023-04-15T15:09:12;15.90;83.00
20158;DHT22;10239;56.820;24.416;2023-04-15T15:11:40;15.90;82.30
20158;DHT22;10239;56.820;24.416;2023-04-15T15:14:07;15.80;83.00
20158;DHT22;10239;56.820;24.416;2023-04-15T15:16:36;15.70;83.70
20158;DHT22;10239;56.820;24.416;2023-04-15T15:19:03;15.80;83.50
20158;DHT22;10239;56.820;24.416;2023-04-15T15:21:31;15.80;82.90
20158;DHT22;10239;56.820;24.416;2023-04-15T15:23:59;15.70;84.80
20158;DHT22;10239;56.820;24.416;2023-04-15T15:26:27;15.90;84.40
20158;DHT22;10239;56.820;24.416;2023-04-15T15:28:54;15.80;85.30
20158;DHT22;10239;56.820;24.416;2023-04-15T15:31:22;15.90;84.90
20158;DHT22;10239;56.820;24.416;2023-04-15T15:33:49;16.00;84.30
20158;DHT22;10239;56.820;24.416;2023-04-15T15:36:19;15.80;85.60
20158;DHT22;10239;56.820;24.416;2023-04-15T15:38:46;15.80;84.30
20158;DHT22;10239;56.820;24.416;2023-04-15T15:41:13;15.60;86.20
20158;DHT22;10239;56.820;24.416;2023-04-15T15:43:41;15.70;86.20
20158;DHT22;10239;56.820;24.416;2023-04-15T15:46:09;15.60;85.10